Terminal Aerodrome Forecast
Issued by NWS

Current Version | Previous Version | Text Only | Print | Product List | Glossary On
Versions: 1 2 3 4 5 6 7 8 9 10 11 12 13 14 15 16 17
000 FTUS41 KBOX 250536 TAFACK TAF KACK 250536Z 2506/2606 10011KT P6SM VCSH OVC090 FM251000 08013G20KT P6SM -RA OVC070 FM251400 08017G25KT 2SM -RA BR OVC010 FM251800 09017G26KT 2SM -RA BR OVC008 FM252000 09016G27KT 1SM -RA BR OVC008 FM252300 10017G26KT 1SM -RA BR OVC003 WS020/13040KT FM260300 10016G23KT 1/2SM -RA FG OVC003 WS020/15045KT=

USA.gov is the U.S. government's official web portal to all federal, state and local government web resources and services.